Time;durP1;ratioP1;P1;durP2;ratioP2;P2;SDS_P1;SDS_P2;PMS_P1;PMS_P2;Temp;Humidity;BMP_temperature;BMP_pressure;BME280_temperature;BME280_humidity;BME280_pressure;Samples;Min_cycle;Max_cycle;Signal;HPM_P1;HPM_P2
2023/02/11 00:02:22;;;;;;;17.87;11.47;;;;;;;-1.55;60.11;99578.25;6326553;27;20292;-34
2023/02/11 00:05:24;;;;;;;19.53;12.37;;;;;;;-1.52;60.15;99572.81;6328196;27;20225;-35
2023/02/11 00:08:27;;;;;;;18.90;11.93;;;;;;;-1.63;60.78;99575.38;6325186;28;20323;-35
2023/02/11 00:11:29;;;;;;;22.07;11.23;;;;;;;-1.67;60.96;99556.53;6328570;28;20228;-35
2023/02/11 00:14:31;;;;;;;17.23;10.93;;;;;;;-1.73;60.50;99543.91;6330780;27;22143;-35
2023/02/11 00:17:33;;;;;;;18.57;11.90;;;;;;;-1.64;60.79;99571.13;6312549;28;20240;-35
2023/02/11 00:20:37;;;;;;;19.33;11.70;;;;;;;-1.71;61.33;99570.75;6329036;27;20769;-36
2023/02/11 00:23:40;;;;;;;21.67;13.57;;;;;;;-1.74;61.43;99565.75;6311310;28;20240;-35
2023/02/11 00:26:42;;;;;;;18.57;11.13;;;;;;;-1.66;61.20;99563.41;6331645;27;20225;-35
2023/02/11 00:29:44;;;;;;;18.43;11.63;;;;;;;-1.70;61.25;99566.38;6326956;28;20581;-35
2023/02/11 00:32:46;;;;;;;18.57;11.20;;;;;;;-1.65;61.12;99559.84;6326301;28;20617;-35
2023/02/11 00:35:48;;;;;;;20.13;12.00;;;;;;;-1.61;61.07;99570.88;6308214;28;20233;-35
2023/02/11 00:38:53;;;;;;;21.23;12.60;;;;;;;-1.53;60.50;99560.66;6325641;28;20238;-35
2023/02/11 00:41:56;;;;;;;20.17;12.47;;;;;;;-1.52;60.87;99558.91;6325671;28;20719;-35
2023/02/11 00:44:58;;;;;;;22.20;12.80;;;;;;;-1.53;60.73;99552.81;6328724;28;20311;-34
2023/02/11 00:48:00;;;;;;;21.07;11.83;;;;;;;-1.49;60.54;99556.88;6327286;28;20239;-35
2023/02/11 00:51:03;;;;;;;22.90;13.33;;;;;;;-1.64;61.10;99548.44;6327960;28;20233;-35
2023/02/11 00:54:05;;;;;;;20.20;12.80;;;;;;;-1.73;61.25;99549.13;6310385;27;20701;-35
2023/02/11 00:57:07;;;;;;;21.73;12.10;;;;;;;-1.83;61.80;99558.63;6314046;27;20578;-35
2023/02/11 01:00:12;;;;;;;22.30;12.93;;;;;;;-1.96;62.45;99555.28;6332988;27;20743;-35
2023/02/11 01:03:14;;;;;;;23.73;13.60;;;;;;;-2.02;62.76;99560.94;6313031;28;20274;-35
2023/02/11 01:06:17;;;;;;;19.93;13.00;;;;;;;-2.00;62.14;99543.41;6332531;27;20734;-35
2023/02/11 01:09:20;;;;;;;24.67;14.10;;;;;;;-2.30;62.26;99513.44;6331279;27;20245;-35
2023/02/11 01:12:22;;;;;;;23.50;13.93;;;;;;;-2.06;62.46;99563.00;6331595;28;20231;-35
2023/02/11 01:15:24;;;;;;;24.43;13.50;;;;;;;-2.12;62.42;99561.66;6321776;28;20308;-35
2023/02/11 01:18:26;;;;;;;21.57;13.73;;;;;;;-2.11;62.91;99547.66;6316697;27;20251;-35
2023/02/11 01:21:28;;;;;;;24.40;14.10;;;;;;;-2.19;62.77;99549.19;6335783;27;20224;-36
2023/02/11 01:24:31;;;;;;;22.63;12.80;;;;;;;-2.53;63.09;99503.88;6335068;27;20245;-35
2023/02/11 01:27:33;;;;;;;20.93;12.07;;;;;;;-2.31;62.90;99547.50;6328314;27;20593;-35
2023/02/11 01:30:35;;;;;;;19.40;12.27;;;;;;;-2.33;63.10;99553.63;6314055;28;20229;-35
2023/02/11 01:33:37;;;;;;;20.97;12.97;;;;;;;-2.39;63.14;99561.09;6309336;28;20248;-35
2023/02/11 01:36:40;;;;;;;22.90;14.17;;;;;;;-2.53;63.19;99517.75;6332555;28;20229;-35
2023/02/11 01:39:42;;;;;;;21.80;13.20;;;;;;;-2.57;63.23;99498.03;6330126;28;20225;-35
2023/02/11 01:42:46;;;;;;;23.73;14.10;;;;;;;-2.39;63.37;99535.00;6312902;28;20232;-35
2023/02/11 01:45:54;;;;;;;25.03;13.63;;;;;;;-2.44;63.42;99531.91;6335209;27;20588;-35
2023/02/11 01:49:04;;;;;;;26.00;14.67;;;;;;;-2.49;63.66;99534.84;6331481;28;20274;-35
2023/02/11 01:52:11;;;;;;;23.83;13.17;;;;;;;-2.50;63.59;99533.19;6330436;28;20246;-35
2023/02/11 01:58:40;;;;;;;21.70;12.73;;;;;;;-2.55;64.35;99511.00;6308310;28;20238;-35
2023/02/11 02:01:47;;;;;;;25.13;13.87;;;;;;;-2.63;64.31;99512.38;6329889;28;20233;-35
2023/02/11 02:05:01;;;;;;;21.60;13.73;;;;;;;-2.65;64.23;99516.88;6327958;28;20237;-35
2023/02/11 02:08:43;;;;;;;23.63;14.10;;;;;;;-2.73;64.82;99508.78;6331196;28;20221;-35
2023/02/11 02:11:45;;;;;;;25.53;14.63;;;;;;;-2.86;65.47;99508.88;6308021;28;20704;-35
2023/02/11 02:14:47;;;;;;;25.70;13.83;;;;;;;-2.91;65.38;99512.72;6312226;28;20725;-35
2023/02/11 02:18:23;;;;;;;24.47;14.03;;;;;;;-2.98;66.31;99504.53;6330498;28;20715;-36
2023/02/11 02:22:02;;;;;;;26.17;14.50;;;;;;;-2.95;66.08;99496.50;6324997;28;20233;-35
2023/02/11 02:25:11;;;;;;;24.90;14.43;;;;;;;-3.11;66.36;99494.13;6325792;28;20229;-35
2023/02/11 02:28:48;;;;;;;22.47;14.47;;;;;;;-3.01;66.25;99483.88;6329769;28;20240;-35
2023/02/11 02:32:09;;;;;;;25.13;14.60;;;;;;;-3.04;66.23;99488.50;6330078;28;20764;-34
2023/02/11 02:35:23;;;;;;;25.47;14.33;;;;;;;-2.91;66.12;99478.81;6327721;28;20228;-34
2023/02/11 02:38:39;;;;;;;24.23;15.13;;;;;;;-2.97;66.59;99474.91;6329749;28;20723;-34
2023/02/11 02:41:43;;;;;;;23.20;14.47;;;;;;;-2.90;66.74;99468.31;6333883;27;20233;-35
2023/02/11 02:44:52;;;;;;;27.33;14.83;;;;;;;-3.19;66.42;99399.22;6330247;28;20767;-35
2023/02/11 02:47:54;;;;;;;26.80;14.37;;;;;;;-2.81;66.40;99458.13;6325408;28;20309;-35
2023/02/11 02:51:05;;;;;;;23.90;14.77;;;;;;;-2.83;66.37;99446.97;6328860;28;20236;-35
2023/02/11 02:54:37;;;;;;;30.27;16.67;;;;;;;-2.83;66.83;99444.38;6329908;28;20232;-35
2023/02/11 02:58:04;;;;;;;28.77;16.87;;;;;;;-2.69;66.78;99439.81;6327939;28;20349;-35
2023/02/11 03:01:20;;;;;;;29.33;17.83;;;;;;;-2.57;67.18;99445.03;6327345;28;20240;-34
2023/02/11 03:04:38;;;;;;;24.53;15.27;;;;;;;-2.39;66.61;99441.88;6325113;28;20222;-35
2023/02/11 03:07:51;;;;;;;28.90;17.13;;;;;;;-2.44;66.32;99406.66;6329538;28;20325;-35
2023/02/11 03:10:55;;;;;;;34.47;20.07;;;;;;;-1.94;66.54;99433.25;6326665;28;20233;-35
2023/02/11 03:14:02;;;;;;;30.77;18.43;;;;;;;-1.08;62.78;99435.13;6329325;28;20274;-35
2023/02/11 03:17:07;;;;;;;31.33;17.53;;;;;;;-0.81;62.48;99445.94;6328778;28;20229;-35
2023/02/11 03:20:13;;;;;;;25.87;16.63;;;;;;;-0.68;61.50;99431.84;6327740;28;20232;-36
2023/02/11 03:23:27;;;;;;;27.93;17.07;;;;;;;-0.72;61.60;99420.81;6328495;28;20317;-35
2023/02/11 03:27:05;;;;;;;33.60;18.90;;;;;;;-0.71;61.85;99432.94;6328398;28;20244;-35
2023/02/11 03:30:21;;;;;;;25.07;16.53;;;;;;;-0.68;61.64;99424.84;6303511;28;20236;-35
2023/02/11 03:33:28;;;;;;;26.70;15.53;;;;;;;-0.78;61.48;99405.63;6330293;27;20589;-35
2023/02/11 03:36:50;;;;;;;27.03;17.07;;;;;;;-0.81;61.44;99392.78;6327466;28;20308;-35
2023/02/11 03:39:58;;;;;;;37.50;18.63;;;;;;;-0.38;60.45;99413.59;6328913;27;20261;-35
2023/02/11 03:43:07;;;;;;;25.50;16.47;;;;;;;-0.29;60.43;99404.94;6325165;27;20236;-35
2023/02/11 03:46:13;;;;;;;30.73;18.90;;;;;;;-0.41;61.04;99402.53;6325340;27;20304;-36
2023/02/11 03:49:20;;;;;;;29.83;18.00;;;;;;;-0.48;61.27;99389.13;6330054;27;20233;-35
2023/02/11 03:52:25;;;;;;;30.40;18.23;;;;;;;-0.48;61.13;99380.47;6328490;27;20243;-35
2023/02/11 03:55:28;;;;;;;28.73;17.50;;;;;;;-0.60;60.92;99354.34;6328391;28;20650;-35
2023/02/11 03:58:30;;;;;;;27.03;17.20;;;;;;;-0.34;60.50;99380.94;6308810;28;20232;-35
2023/02/11 04:01:33;;;;;;;32.63;19.73;;;;;;;-0.38;61.17;99379.53;6310567;28;20236;-35
2023/02/11 04:04:35;;;;;;;27.87;17.80;;;;;;;-0.18;60.49;99374.41;6325764;27;20221;-35
2023/02/11 04:07:37;;;;;;;28.87;18.97;;;;;;;-0.04;60.00;99366.19;6329421;27;20229;-36
2023/02/11 04:10:39;;;;;;;32.00;21.03;;;;;;;0.21;58.84;99359.63;6329857;27;20285;-35
2023/02/11 04:13:40;;;;;;;29.13;19.03;;;;;;;0.39;58.32;99358.00;6304662;28;20224;-35
2023/02/11 04:16:42;;;;;;;28.67;17.97;;;;;;;0.46;58.08;99358.31;6329345;27;20225;-35
2023/02/11 04:19:45;;;;;;;34.77;20.53;;;;;;;0.50;57.60;99363.13;6323430;28;20270;-35
2023/02/11 04:22:47;;;;;;;31.90;18.03;;;;;;;0.60;57.06;99344.78;6328752;27;20224;-35
2023/02/11 04:25:49;;;;;;;30.17;18.97;;;;;;;0.65;57.20;99365.38;6330286;27;20225;-36
2023/02/11 04:28:52;;;;;;;30.87;19.87;;;;;;;0.58;57.42;99364.25;6328808;27;20224;-35
2023/02/11 04:31:54;;;;;;;29.20;18.23;;;;;;;0.42;58.28;99370.03;6329450;27;20228;-35
2023/02/11 04:34:56;;;;;;;33.00;20.13;;;;;;;0.35;58.14;99361.88;6314808;28;20738;-35
2023/02/11 04:37:58;;;;;;;29.60;18.63;;;;;;;0.11;58.86;99370.09;6327835;28;20213;-36
2023/02/11 04:41:00;;;;;;;27.97;18.20;;;;;;;0.07;59.14;99354.78;6330901;28;20225;-35
2023/02/11 04:44:02;;;;;;;27.50;17.43;;;;;;;0.04;59.28;99366.34;6327301;28;20226;-35
2023/02/11 04:47:05;;;;;;;26.10;17.83;;;;;;;0.03;58.95;99358.63;6329659;28;20226;-36
2023/02/11 04:50:08;;;;;;;31.03;19.27;;;;;;;-0.08;59.79;99357.75;6313662;28;20229;-35
2023/02/11 04:53:10;;;;;;;29.67;19.23;;;;;;;-0.10;59.98;99354.44;6330709;28;20235;-35
2023/02/11 04:56:12;;;;;;;32.50;20.87;;;;;;;0.01;59.35;99360.56;6325713;28;20234;-35
2023/02/11 04:59:14;;;;;;;30.60;19.30;;;;;;;-0.02;59.00;99302.19;6326873;28;20319;-35
2023/02/11 05:02:16;;;;;;;30.53;18.50;;;;;;;0.43;58.06;99346.28;6326789;28;20598;-35
2023/02/11 05:05:18;;;;;;;31.20;19.70;;;;;;;0.55;57.53;99341.75;6319138;28;20674;-35
2023/02/11 05:08:20;;;;;;;33.37;20.43;;;;;;;0.78;57.26;99351.00;6327417;28;20615;-35
2023/02/11 05:11:24;;;;;;;28.57;19.03;;;;;;;0.98;56.53;99338.69;6327594;28;20595;-34
2023/02/11 05:14:26;;;;;;;29.33;19.00;;;;;;;1.15;55.68;99331.91;6323910;28;20630;-35
2023/02/11 05:17:28;;;;;;;32.67;18.83;;;;;;;1.15;56.20;99345.03;6327593;28;20248;-36
2023/02/11 05:20:30;;;;;;;26.27;16.50;;;;;;;1.08;56.91;99350.97;6309867;28;20613;-35
2023/02/11 05:23:33;;;;;;;29.77;18.77;;;;;;;0.94;57.71;99342.59;6329075;28;20240;-35
2023/02/11 05:26:35;;;;;;;29.27;17.60;;;;;;;0.31;57.34;99218.94;6328930;28;20227;-36
2023/02/11 05:29:37;;;;;;;26.40;17.37;;;;;;;0.90;57.33;99324.63;6325382;28;21041;-35
2023/02/11 05:32:39;;;;;;;28.70;17.10;;;;;;;1.05;57.49;99343.41;6304710;28;20592;-35
2023/02/11 05:35:41;;;;;;;29.20;18.77;;;;;;;0.78;56.85;99295.91;6328058;28;20369;-35
2023/02/11 05:38:43;;;;;;;25.33;16.17;;;;;;;1.27;56.16;99356.19;6328065;28;20715;-37
2023/02/11 05:41:45;;;;;;;30.07;17.27;;;;;;;1.34;55.51;99345.97;6334943;27;20235;-36
2023/02/11 05:44:47;;;;;;;23.33;15.37;;;;;;;1.41;55.40;99328.69;6334368;27;20232;-36
2023/02/11 05:47:51;;;;;;;26.63;15.40;;;;;;;1.58;54.87;99342.84;6332776;27;20549;-36
2023/02/11 05:50:53;;;;;;;26.43;16.50;;;;;;;1.57;55.22;99349.91;6330797;28;20230;-36
2023/02/11 05:53:55;;;;;;;29.30;18.57;;;;;;;1.55;54.75;99331.66;6335326;27;20231;-35
2023/02/11 05:56:57;;;;;;;24.50;16.73;;;;;;;1.49;55.38;99340.13;6331404;27;20683;-36
2023/02/11 05:59:59;;;;;;;28.53;17.83;;;;;;;1.59;54.55;99318.25;6330040;28;20239;-35
2023/02/11 06:03:03;;;;;;;24.73;16.17;;;;;;;1.68;54.77;99326.09;6331153;28;20606;-35
2023/02/11 06:06:09;;;;;;;22.80;14.40;;;;;;;1.53;54.89;99294.22;6328994;27;20223;-36
2023/02/11 06:09:11;;;;;;;25.30;17.30;;;;;;;1.72;54.06;99316.94;6332635;27;20255;-35
2023/02/11 06:12:13;;;;;;;24.77;16.37;;;;;;;1.77;53.04;99301.59;6313996;28;20671;-35
2023/02/11 06:15:15;;;;;;;25.73;17.37;;;;;;;1.87;53.38;99304.16;6330348;28;20217;-36
2023/02/11 06:18:17;;;;;;;25.50;17.27;;;;;;;1.80;53.90;99295.22;6306503;28;20214;-36
2023/02/11 06:21:19;;;;;;;26.07;17.10;;;;;;;1.69;53.27;99269.97;6331311;27;20233;-36
2023/02/11 06:24:21;;;;;;;25.63;16.07;;;;;;;2.00;51.48;99282.78;6333691;27;20230;-36
2023/02/11 06:27:43;;;;;;;25.73;16.13;;;;;;;2.11;50.90;99279.94;6329626;28;20236;-35
2023/02/11 06:30:45;;;;;;;23.83;14.90;;;;;;;2.18;50.61;99286.28;6326849;28;20295;-36
2023/02/11 06:33:49;;;;;;;26.70;16.27;;;;;;;2.25;50.23;99289.13;6333502;27;20716;-36
2023/02/11 06:36:50;;;;;;;26.07;15.40;;;;;;;2.15;49.59;99255.03;6314118;28;20238;-36
2023/02/11 06:39:52;;;;;;;23.03;15.33;;;;;;;2.40;48.94;99279.75;6330267;27;20241;-36
2023/02/11 06:42:54;;;;;;;25.43;16.30;;;;;;;2.49;48.59;99284.09;6314636;28;20798;-36
2023/02/11 06:45:56;;;;;;;25.00;15.37;;;;;;;2.54;48.27;99266.06;6332797;27;20245;-36
2023/02/11 06:48:58;;;;;;;23.37;14.67;;;;;;;2.59;48.15;99261.19;6327337;27;20218;-36
2023/02/11 06:52:00;;;;;;;22.40;14.80;;;;;;;2.59;48.73;99260.34;6327924;27;20224;-36
2023/02/11 06:55:03;;;;;;;25.93;15.10;;;;;;;2.69;47.72;99266.34;6310931;28;20316;-36
2023/02/11 06:58:05;;;;;;;20.60;14.03;;;;;;;2.72;48.39;99273.94;6326027;28;20233;-35
2023/02/11 07:01:10;;;;;;;23.57;15.20;;;;;;;2.80;48.03;99275.81;6332089;27;20581;-36
2023/02/11 07:04:13;;;;;;;23.40;13.90;;;;;;;2.75;48.02;99262.28;6332309;27;20227;-36
2023/02/11 07:07:15;;;;;;;22.80;14.70;;;;;;;2.93;46.67;99291.22;6333150;27;20229;-36
2023/02/11 07:10:17;;;;;;;28.53;15.20;;;;;;;3.05;45.63;99272.41;6324135;27;20233;-35
2023/02/11 07:13:19;;;;;;;21.93;14.30;;;;;;;3.17;44.97;99264.22;6323463;28;20239;-35
2023/02/11 07:16:22;;;;;;;19.60;13.67;;;;;;;3.28;44.89;99282.41;6329070;28;20232;-36
2023/02/11 07:19:24;;;;;;;21.57;13.63;;;;;;;3.31;44.06;99277.66;6329545;28;20241;-36
2023/02/11 07:22:26;;;;;;;27.07;14.07;;;;;;;3.44;44.35;99281.66;6322950;28;20236;-35
2023/02/11 07:25:28;;;;;;;22.90;14.40;;;;;;;3.32;44.06;99244.22;6328508;27;20239;-36
2023/02/11 07:28:30;;;;;;;26.73;14.77;;;;;;;3.51;43.07;99259.81;6327800;27;20248;-36
2023/02/11 07:31:32;;;;;;;20.53;12.80;;;;;;;3.68;43.41;99267.78;6324294;27;20235;-36
2023/02/11 07:34:34;;;;;;;23.77;14.37;;;;;;;3.80;42.93;99262.06;6329728;27;20240;-35
2023/02/11 07:37:37;;;;;;;21.03;13.63;;;;;;;3.84;42.86;99255.50;6329902;27;20233;-35
2023/02/11 07:40:39;;;;;;;20.93;13.80;;;;;;;3.91;42.19;99266.22;6329862;27;20793;-36
2023/02/11 07:43:41;;;;;;;21.77;12.83;;;;;;;4.00;42.05;99262.63;6302867;27;20227;-36
2023/02/11 07:46:44;;;;;;;21.80;13.60;;;;;;;4.07;41.37;99262.81;6328431;27;20700;-36
2023/02/11 07:49:46;;;;;;;21.50;12.80;;;;;;;4.14;41.32;99245.38;6325284;27;20217;-36
2023/02/11 07:52:48;;;;;;;21.60;12.40;;;;;;;4.07;41.75;99236.44;6330085;27;20324;-36
2023/02/11 07:55:50;;;;;;;21.63;13.20;;;;;;;4.23;42.94;99252.28;6330660;27;20310;-36
2023/02/11 07:58:54;;;;;;;20.77;12.90;;;;;;;4.26;41.43;99248.50;6329386;27;20287;-36
2023/02/11 08:01:56;;;;;;;21.63;13.73;;;;;;;4.30;42.02;99258.56;6330192;27;20240;-36
2023/02/11 08:04:58;;;;;;;19.07;12.03;;;;;;;4.31;41.86;99267.31;6328276;27;20224;-36
2023/02/11 08:08:00;;;;;;;18.40;12.37;;;;;;;4.32;42.48;99288.25;6330707;27;20224;-36
2023/02/11 08:11:07;;;;;;;19.50;11.40;;;;;;;4.39;43.22;99285.78;6327429;27;20265;-35
2023/02/11 08:14:10;;;;;;;20.47;12.33;;;;;;;4.44;43.35;99282.69;6328685;27;20521;-36
2023/02/11 08:17:12;;;;;;;15.23;10.67;;;;;;;4.54;43.46;99293.91;6332343;27;20247;-36
2023/02/11 08:20:14;;;;;;;22.03;12.97;;;;;;;4.56;43.43;99297.19;6330061;27;20223;-36
2023/02/11 08:23:16;;;;;;;21.97;13.20;;;;;;;4.52;42.16;99280.84;6332415;27;20705;-36
2023/02/11 08:26:24;;;;;;;21.47;13.13;;;;;;;4.70;41.53;99280.69;6335618;28;20713;-36
2023/02/11 08:29:26;;;;;;;19.93;13.10;;;;;;;4.73;42.60;99274.25;6324113;28;20696;-36
2023/02/11 08:32:28;;;;;;;24.10;15.60;;;;;;;4.64;41.92;99281.38;6326584;28;20232;-36
2023/02/11 08:35:35;;;;;;;22.13;14.30;;;;;;;4.70;41.75;99274.59;6328300;28;20743;-36
2023/02/11 08:38:37;;;;;;;24.40;14.93;;;;;;;4.58;41.82;99269.66;6326884;28;20242;-36
2023/02/11 08:41:39;;;;;;;24.47;14.60;;;;;;;4.24;41.83;99222.28;6322790;28;20319;-36
2023/02/11 08:44:42;;;;;;;26.47;16.07;;;;;;;4.50;42.27;99263.53;6327847;28;20229;-36
2023/02/11 08:47:44;;;;;;;26.30;14.30;;;;;;;4.53;41.83;99263.19;6327613;28;20597;-36
2023/02/11 08:50:46;;;;;;;22.13;13.90;;;;;;;4.70;41.79;99266.69;6328297;28;20374;-36
2023/02/11 08:53:49;;;;;;;19.40;13.90;;;;;;;4.78;41.89;99245.53;6328703;28;20755;-36
2023/02/11 08:56:51;;;;;;;17.80;11.97;;;;;;;5.00;41.71;99254.63;6326308;28;20320;-36
2023/02/11 08:59:53;;;;;;;22.37;14.43;;;;;;;5.17;40.88;99253.56;6328201;28;20244;-36
2023/02/11 09:02:55;;;;;;;23.03;14.80;;;;;;;5.35;39.91;99248.09;6330050;28;20219;-36
2023/02/11 09:05:57;;;;;;;22.63;14.27;;;;;;;5.46;40.14;99262.75;6322994;28;20245;-37
2023/02/11 09:08:59;;;;;;;23.23;14.60;;;;;;;5.52;39.65;99251.53;6329752;28;20230;-36
2023/02/11 09:12:01;;;;;;;21.23;12.73;;;;;;;5.63;39.79;99270.47;6329861;28;20266;-34
2023/02/11 09:15:03;;;;;;;23.93;14.80;;;;;;;5.52;39.84;99267.41;6334140;27;20218;-36
2023/02/11 09:18:06;;;;;;;21.30;13.97;;;;;;;5.71;39.52;99261.69;6334591;27;20687;-36
2023/02/11 09:21:09;;;;;;;23.83;15.27;;;;;;;5.85;40.10;99250.38;6334307;27;20232;-36
2023/02/11 09:24:11;;;;;;;20.47;13.63;;;;;;;5.76;40.03;99250.59;6335595;27;20242;-36
2023/02/11 09:27:13;;;;;;;24.10;15.20;;;;;;;5.94;40.37;99251.19;6335311;27;20232;-36
2023/02/11 09:30:15;;;;;;;21.10;14.83;;;;;;;6.10;39.85;99235.22;6328847;27;20240;-36
2023/02/11 09:33:17;;;;;;;23.60;15.30;;;;;;;6.28;39.07;99250.84;6322116;28;20233;-36
2023/02/11 09:36:30;;;;;;;22.80;14.97;;;;;;;5.88;39.10;99173.34;6332003;27;20230;-36
2023/02/11 09:39:32;;;;;;;21.50;15.43;;;;;;;6.12;39.49;99265.00;6313419;28;20726;-36
2023/02/11 09:42:52;;;;;;;24.20;16.33;;;;;;;6.06;40.93;99248.97;6331165;27;20593;-36
2023/02/11 09:45:55;;;;;;;24.67;14.77;;;;;;;5.90;40.38;99207.53;6330087;27;20232;-36
2023/02/11 09:48:58;;;;;;;23.03;14.63;;;;;;;6.24;40.53;99248.72;6332563;27;20232;-35
2023/02/11 09:52:06;;;;;;;22.13;14.67;;;;;;;6.09;39.78;99232.78;6332215;27;20737;-35
2023/02/11 09:55:26;;;;;;;19.97;13.30;;;;;;;6.24;39.40;99228.38;6334538;27;20705;-36
2023/02/11 09:58:37;;;;;;;21.33;13.80;;;;;;;6.49;38.86;99255.50;6331943;27;20315;-37
2023/02/11 10:02:03;;;;;;;20.43;13.87;;;;;;;6.71;38.81;99220.25;6329427;27;20229;-37
2023/02/11 10:05:12;;;;;;;20.87;14.00;;;;;;;6.84;37.79;99214.31;6328967;27;20216;-36
2023/02/11 10:09:11;;;;;;;19.37;12.67;;;;;;;8.17;35.71;99213.41;6332594;27;20301;-36
2023/02/11 10:12:37;;;;;;;19.47;12.77;;;;;;;10.06;32.01;99199.94;6249066;28;20234;-37
2023/02/11 10:16:13;;;;;;;20.07;13.20;;;;;;;10.50;30.47;99201.28;6256915;28;20255;-37
2023/02/11 10:19:59;;;;;;;16.50;11.53;;;;;;;10.28;30.18;99197.16;6330481;27;20688;-36
2023/02/11 10:23:12;;;;;;;17.40;11.20;;;;;;;10.12;30.28;99206.31;6328796;27;20229;-36
2023/02/11 10:26:17;;;;;;;15.33;11.20;;;;;;;9.94;30.71;99209.53;6332560;27;20595;-37
2023/02/11 10:29:40;;;;;;;17.43;11.43;;;;;;;10.02;30.65;99209.34;6330262;27;20228;-33
2023/02/11 10:32:51;;;;;;;15.30;11.17;;;;;;;11.27;28.34;99190.97;6332793;27;20239;-36
2023/02/11 10:35:53;;;;;;;15.33;9.97;;;;;;;10.19;29.76;99190.34;6326843;27;20320;-37
2023/02/11 10:39:09;;;;;;;15.70;10.27;;;;;;;9.59;30.85;99189.34;6329123;28;20241;-37
2023/02/11 10:42:13;;;;;;;15.27;11.30;;;;;;;8.82;31.70;99193.81;6329271;28;20733;-36
2023/02/11 10:45:26;;;;;;;18.73;12.13;;;;;;;8.17;33.72;99187.66;6329741;27;20227;-36
2023/02/11 10:48:51;;;;;;;15.90;11.20;;;;;;;7.87;32.60;99180.81;6331213;27;20601;-37
2023/02/11 10:52:13;;;;;;;16.17;11.43;;;;;;;7.60;33.79;99185.81;6329535;27;20300;-37
2023/02/11 10:55:20;;;;;;;16.20;10.80;;;;;;;7.60;33.75;99179.69;6328173;27;20324;-37
2023/02/11 10:58:44;;;;;;;18.03;10.93;;;;;;;7.62;32.73;99161.75;6329361;27;20237;-37
2023/02/11 11:01:59;;;;;;;14.63;9.83;;;;;;;7.63;33.53;99160.75;6327157;28;20237;-37
2023/02/11 11:05:15;;;;;;;15.23;10.17;;;;;;;7.52;34.17;99156.75;6324675;27;20236;-36
2023/02/11 11:08:18;;;;;;;15.67;10.03;;;;;;;7.57;33.52;99146.41;6317672;28;20712;-36
2023/02/11 11:11:25;;;;;;;13.60;9.97;;;;;;;7.67;33.68;99165.50;6332126;27;20237;-37
2023/02/11 11:14:28;;;;;;;15.50;10.67;;;;;;;7.65;33.98;99169.34;6324418;27;20248;-37
2023/02/11 11:17:30;;;;;;;15.10;9.97;;;;;;;7.47;34.34;99152.00;6330519;27;20272;-36
2023/02/11 11:20:35;;;;;;;14.97;9.33;;;;;;;7.36;34.61;99133.94;6328704;27;20236;-35
2023/02/11 11:23:38;;;;;;;13.70;9.47;;;;;;;7.45;34.65;99135.47;6331418;27;20229;-36
2023/02/11 11:26:44;;;;;;;13.93;9.90;;;;;;;7.70;34.31;99141.25;6331662;27;20260;-37
2023/02/11 11:29:48;;;;;;;14.27;9.20;;;;;;;7.74;33.91;99117.84;6327804;27;20326;-37
2023/02/11 11:32:51;;;;;;;14.67;10.00;;;;;;;7.70;34.34;99127.19;6324647;27;20523;-36
2023/02/11 11:36:19;;;;;;;13.07;8.53;;;;;;;7.87;34.43;99094.09;6324438;28;20729;-36
2023/02/11 11:39:26;;;;;;;15.73;10.57;;;;;;;7.92;33.92;99073.09;6319492;27;20261;-36
2023/02/11 11:42:33;;;;;;;15.20;8.93;;;;;;;7.85;33.99;99090.00;6328361;28;20239;-37
2023/02/11 11:45:35;;;;;;;15.00;9.77;;;;;;;7.84;34.16;99057.34;6327885;28;20988;-36
2023/02/11 11:48:41;;;;;;;14.23;9.07;;;;;;;8.08;34.78;99097.75;6308114;27;20239;-36
2023/02/11 11:51:53;;;;;;;16.40;8.97;;;;;;;8.12;33.73;99088.38;6321320;27;20276;-36
2023/02/11 11:55:21;;;;;;;15.63;9.70;;;;;;;7.86;33.51;99036.72;6327943;28;20597;-37
2023/02/11 11:58:23;;;;;;;15.70;8.40;;;;;;;8.13;34.01;99087.41;6316980;28;20225;-37
2023/02/11 12:01:44;;;;;;;14.80;9.37;;;;;;;7.96;33.69;99066.41;6322604;28;20237;-37
2023/02/11 12:04:52;;;;;;;18.80;9.83;;;;;;;7.72;33.97;99080.06;6328497;27;20304;-37
2023/02/11 12:08:28;;;;;;;13.03;8.50;;;;;;;7.52;35.47;99071.09;6323547;27;20232;-37
2023/02/11 12:11:37;;;;;;;12.33;9.00;;;;;;;7.49;36.19;99073.09;6328269;27;20252;-36
2023/02/11 12:14:41;;;;;;;12.60;8.17;;;;;;;7.47;36.89;99069.81;6330413;27;20558;-36
2023/02/11 12:18:11;;;;;;;12.13;8.03;;;;;;;7.70;37.14;99074.13;6312493;28;20328;-37
2023/02/11 12:21:41;;;;;;;12.50;7.50;;;;;;;7.96;37.01;99055.81;6328651;27;20248;-36
2023/02/11 12:24:43;;;;;;;8.83;5.93;;;;;;;8.17;37.04;99062.09;6326768;27;20320;-36
2023/02/11 12:28:00;;;;;;;8.00;5.40;;;;;;;8.14;36.41;99049.22;6313153;28;20230;-36
2023/02/11 12:31:18;;;;;;;10.10;6.37;;;;;;;8.04;35.54;99048.72;6319918;28;20342;-36
2023/02/11 12:34:23;;;;;;;11.53;6.37;;;;;;;7.83;35.72;99041.59;6323370;28;20233;-37
2023/02/11 12:37:25;;;;;;;9.93;6.10;;;;;;;7.91;35.50;99046.78;6328067;28;20455;-36
2023/02/11 12:40:58;;;;;;;11.27;6.50;;;;;;;7.95;35.54;99040.91;6326792;28;20235;-36
2023/02/11 12:44:00;;;;;;;12.17;6.73;;;;;;;7.91;35.30;99042.28;6325942;28;20229;-36
2023/02/11 12:47:27;;;;;;;10.60;6.73;;;;;;;7.52;34.28;98996.84;6327072;28;20220;-36
2023/02/11 12:50:32;;;;;;;10.67;6.67;;;;;;;7.79;33.90;99035.88;6326540;27;20216;-37
2023/02/11 12:54:09;;;;;;;11.40;7.17;;;;;;;7.81;33.41;99039.13;6332887;27;20701;-36
2023/02/11 12:57:36;;;;;;;13.93;8.73;;;;;;;7.41;33.92;99036.09;6329306;27;20244;-36
2023/02/11 13:00:46;;;;;;;13.30;8.20;;;;;;;7.51;33.46;99041.09;6330505;27;20725;-37
2023/02/11 13:04:18;;;;;;;17.10;9.40;;;;;;;7.51;33.18;99035.78;6332332;28;20225;-37
2023/02/11 13:07:35;;;;;;;15.53;8.37;;;;;;;7.30;33.06;99030.47;6331503;27;20250;-36
2023/02/11 13:10:42;;;;;;;15.10;9.07;;;;;;;7.23;33.18;99031.19;6328802;28;20225;-36
2023/02/11 13:13:44;;;;;;;12.20;8.40;;;;;;;7.31;33.76;99040.88;6328910;28;20313;-35
2023/02/11 13:16:49;;;;;;;10.63;7.57;;;;;;;7.46;33.49;99052.25;6333380;27;20239;-35
2023/02/11 13:20:02;;;;;;;16.47;9.27;;;;;;;7.11;32.75;99016.00;6334867;27;20222;-35
2023/02/11 13:23:30;;;;;;;14.43;8.83;;;;;;;7.13;33.23;99051.88;6330633;27;20235;-35
2023/02/11 13:26:56;;;;;;;13.00;7.60;;;;;;;7.25;33.67;99073.44;6331456;27;20691;-35
2023/02/11 13:30:21;;;;;;;15.03;9.07;;;;;;;7.05;33.97;99082.97;6330363;27;20228;-34
2023/02/11 13:33:34;;;;;;;15.67;8.67;;;;;;;6.79;33.63;99075.50;6329119;27;20231;-34
2023/02/11 13:36:37;;;;;;;16.63;9.53;;;;;;;7.04;34.18;99083.97;6335698;27;20251;-35
2023/02/11 13:39:40;;;;;;;17.70;9.13;;;;;;;6.95;34.77;99085.91;6331827;28;20239;-35
2023/02/11 13:42:51;;;;;;;16.10;9.07;;;;;;;6.89;35.12;99074.19;6331559;27;20370;-35
2023/02/11 13:46:00;;;;;;;16.77;9.83;;;;;;;6.82;35.74;99096.31;6327737;28;20244;-35
2023/02/11 13:49:02;;;;;;;20.23;10.63;;;;;;;6.62;35.11;99073.03;6331373;27;20231;-35
2023/02/11 13:52:17;;;;;;;17.93;10.67;;;;;;;6.46;36.19;99087.25;6330576;28;20781;-35
2023/02/11 13:55:23;;;;;;;15.40;9.17;;;;;;;6.27;36.66;99048.06;6331057;28;20225;-35
2023/02/11 13:58:28;;;;;;;18.43;11.00;;;;;;;6.52;36.33;99080.41;6331395;27;20382;-35
2023/02/11 14:09:10;;;;;;;16.53;10.43;;;;;;;6.14;36.88;99034.63;6329957;27;20225;-35
2023/02/11 14:12:22;;;;;;;17.23;11.13;;;;;;;6.26;37.06;99041.16;6327699;27;20693;-35
2023/02/11 14:15:36;;;;;;;22.67;12.33;;;;;;;6.25;37.07;99038.66;6331987;27;20232;-34
2023/02/11 14:18:51;;;;;;;19.80;11.73;;;;;;;6.21;37.02;99054.09;6327820;27;20234;-35
2023/02/11 14:22:10;;;;;;;19.53;12.30;;;;;;;6.23;36.83;99067.97;6332186;27;20574;-34
2023/02/11 14:25:21;;;;;;;18.87;10.47;;;;;;;6.20;37.22;99082.34;6330999;27;20228;-35
2023/02/11 14:28:32;;;;;;;16.07;10.23;;;;;;;6.24;37.92;99079.38;6331969;27;20243;-36
2023/02/11 14:31:53;;;;;;;22.07;12.93;;;;;;;6.14;37.57;99101.59;6326259;28;20262;-35
2023/02/11 14:35:36;;;;;;;20.63;11.57;;;;;;;6.06;37.53;99069.09;6325616;28;20749;-35
2023/02/11 14:38:50;;;;;;;18.87;11.37;;;;;;;5.99;37.70;99070.81;6328695;27;20229;-37
2023/02/11 14:41:53;;;;;;;20.63;11.17;;;;;;;6.06;38.01;99062.00;6331415;27;20243;-36
2023/02/11 14:45:03;;;;;;;20.33;12.53;;;;;;;5.96;38.29;99077.31;6332800;28;20224;-36